Weather at San Francisco International Airport

Public forecast

Using degrees Fahrenheit for public forecast. Weather courtesy of forecast.io.

Current aviation weather report (METAR) for San Francisco International Airport

Retrieved 2021/11/27 13:56 UTC (53 minutes ago):

KSFO 271356Z 00000KT 10SM FEW200 10/07 A3014 RMK AO2 SLP207 T01000072

Aviation forecast (TAF) for San Francisco International Airport

Retrieved 2021/11/27 12:22 UTC (2 hours ago):

TAF KSFO 271120Z 2712/2818 VRB04KT P6SM FEW006 BKN200 FM271800 VRB05KT P6SM SCT200 FM272300 29009KT P6SM SCT200 FM280700 VRB03KT P6SM SCT200